CDC weather

Cedar City Regional Airport
Cedar City, Utah, United States

Public forecast

Using degrees Fahrenheit for public forecast. Weather courtesy of forecast.io.

Current aviation weather report (METAR) for Cedar City Regional Airport

Retrieved 2020/04/07 21:53 UTC (1 hour ago):

KCDC 072153Z AUTO 24013G21KT 10SM CLR 17/M06 A3005 RMK AO2 SLP141 T01671061

Aviation forecast (TAF) for Cedar City Regional Airport

Retrieved 2020/04/07 18:33 UTC (4 hours ago):

TAF KCDC 071731Z 0718/0818 21010KT P6SM SCT060 BKN120 FM080300 16004KT P6SM SCT060 SCT120